ADDS METAR Data INFO
IDs: Format: Raw Decoded Include TAF

Data at: 1321 UTC 11 Dec 2017

KOFK 111256Z AUTO 30021G29KT 10SM CLR 07/M07 A2993 RMK AO2 PK WND 30029/1256 SLP146 T00721072
KOFK 111156Z AUTO 29018KT 10SM CLR 08/M08 A2993 RMK AO2 SLP142 T00781078 10078 20033 55006
KOFK 111056Z AUTO 28014KT 10SM CLR 06/M08 A2992 RMK AO2 SLP138 T00561078
KOFK 110956Z AUTO 27014KT 10SM CLR 05/M08 A2993 RMK AO2 SLP141 T00501078
KOFK 110856Z AUTO 27009KT 10SM CLR 03/M08 A2995 RMK AO2 SLP147 T00331078 56017
KOFK 110756Z AUTO 29009KT 10SM CLR 04/M07 A2995 RMK AO2 SLP149 T00391072
KOFK 110656Z AUTO 28010KT 10SM CLR 05/M08 A2997 RMK AO2 SLP157 T00501078
KOFK 110556Z AUTO 27007KT 10SM CLR 04/M08 A3000 RMK AO2 SLP165 T00441078 10061 20000 401330000 56019
KOFK 110456Z AUTO 25008KT 10SM CLR 05/M07 A3001 RMK AO2 SLP170 T00501067
KOFK 110356Z AUTO 21005KT 10SM CLR 03/M07 A3002 RMK AO2 SLP176 T00331067
KOFK 110256Z AUTO 23004KT 10SM CLR 00/M07 A3005 RMK AO2 SLP191 T00001067 58011
KOFK 110156Z AUTO 00000KT 10SM CLR 01/M07 A3007 RMK AO2 SLP197 T00111072
KOFK 110056Z AUTO 23007KT 10SM CLR 00/M08 A3008 RMK AO2 SLP199 T00001078
KOFK 102356Z AUTO 28003KT 10SM CLR 05/M08 A3009 RMK AO2 SLP200 T00501078 10133 20039 53003
KOFK 102256Z AUTO 29005KT 10SM CLR 08/M08 A3009 RMK AO2 SLP197 T00831078
KOFK 102156Z AUTO 31006KT 10SM CLR 12/M07 A3008 RMK AO2 SLP193 T01221072
KOFK 102056Z AUTO 30011KT 10SM CLR 13/M07 A3008 RMK AO2 SLP194 T01281072 55004
KOFK 101956Z AUTO 30012KT 10SM CLR 12/M07 A3007 RMK AO2 SLP189 T01221067
KOFK 101856Z AUTO 31015KT 10SM CLR 11/M06 A3008 RMK AO2 SLP195 T01111061
KOFK 101756Z AUTO 33019G23KT 10SM CLR 10/M06 A3010 RMK AO2 SLP200 T01001061 10106 20033 50004
KOFK 101656Z AUTO 32017KT 10SM CLR 09/M07 A3010 RMK AO2 PK WND 31027/1639 SLP203 T00941067
KOFK 101556Z AUTO 33018G23KT 10SM CLR 08/M06 A3009 RMK AO2 SLP200 T00831056
KOFK 101456Z AUTO 31009KT 10SM CLR 05/M06 A3008 RMK AO2 SLP201 T00501061 51013
KOFK 101356Z AUTO 31010KT 10SM CLR 03/M07 A3008 RMK AO2 SLP200 T00331067
KOFK 101256Z AUTO 31013KT 10SM CLR 04/M07 A3006 RMK AO2 SLP195 T00441072
KOFK 101156Z AUTO 30012KT 10SM CLR 04/M07 A3004 RMK AO2 SLP187 T00441067 10050 20006 53011
KOFK 101056Z AUTO 29011KT 10SM CLR 04/M06 A3003 RMK AO2 SLP181 T00391061
KOFK 100956Z AUTO 30012KT 10SM CLR 04/M06 A3002 RMK AO2 SLP177 T00441061
KOFK 100856Z AUTO 30012KT 10SM CLR 04/M06 A3001 RMK AO2 SLP172 T00391061 53002
KOFK 100756Z AUTO 28010KT 10SM CLR 03/M06 A2999 RMK AO2 SLP168 T00281056
KOFK 100656Z AUTO 30010KT 10SM CLR 01/M06 A2999 RMK AO2 SLP170 T00111056
KOFK 100556Z AUTO 27010KT 10SM CLR 02/M06 A3000 RMK AO2 SLP173 T00171061 10022 21033 400441044 56010
KOFK 100456Z AUTO 28006KT 10SM CLR M02/M07 A3000 RMK AO2 SLP177 T10171067
KOFK 100356Z AUTO 25008KT 10SM CLR 01/M06 A3001 RMK AO2 SLP178 T00111056
KOFK 100256Z AUTO 23007KT 10SM CLR M01/M06 A3003 RMK AO2 SLP189 T10061056 58021
KOFK 100156Z AUTO 20008KT 10SM CLR M01/M06 A3006 RMK AO2 SLP197 T10061056